Time;durP1;ratioP1;P1;durP2;ratioP2;P2;SDS_P1;SDS_P2;PMS_P1;PMS_P2;Temp;Humidity;BMP_temperature;BMP_pressure;BME280_temperature;BME280_humidity;BME280_pressure;Samples;Min_cycle;Max_cycle;Signal;HPM_P1;HPM_P2
2024/03/09 00:00:32;;;;;;;39.13;19.30;;;5.60;99.90;;;;;;5036023;28;20056;-73
2024/03/09 00:03:00;;;;;;;39.10;19.80;;;5.60;99.90;;;;;;5019580;28;20033;-74
2024/03/09 00:05:25;;;;;;;42.00;21.52;;;5.60;99.90;;;;;;5034823;28;20038;-74
2024/03/09 00:07:55;;;;;;;46.20;22.23;;;5.50;99.90;;;;;;5033848;28;20191;-74
2024/03/09 00:10:21;;;;;;;44.80;21.13;;;5.60;99.90;;;;;;5035410;28;20044;-74
2024/03/09 00:12:48;;;;;;;49.35;22.48;;;5.60;99.90;;;;;;5035809;28;20040;-74
2024/03/09 00:15:15;;;;;;;43.60;21.27;;;5.60;99.90;;;;;;5034836;28;20037;-74
2024/03/09 00:17:48;;;;;;;43.55;21.92;;;5.60;99.90;;;;;;5017563;28;20079;-74
2024/03/09 00:20:19;;;;;;;41.75;20.13;;;5.60;99.90;;;;;;5034444;28;20029;-74
2024/03/09 00:22:45;;;;;;;44.40;21.40;;;5.70;99.90;;;;;;5033673;28;20021;-74
2024/03/09 00:25:11;;;;;;;44.65;22.10;;;5.70;99.90;;;;;;5016623;28;20040;-74
2024/03/09 00:27:40;;;;;;;49.80;23.42;;;5.70;99.90;;;;;;5017138;28;20041;-75
2024/03/09 00:30:13;;;;;;;41.17;21.38;;;5.70;99.90;;;;;;5017642;28;20076;-74
2024/03/09 00:32:39;;;;;;;43.72;22.15;;;5.70;99.90;;;;;;5034488;28;20026;-74
2024/03/09 00:35:06;;;;;;;43.47;22.17;;;5.70;99.90;;;;;;5018074;28;20038;-74
2024/03/09 00:37:32;;;;;;;47.88;22.88;;;5.70;99.90;;;;;;5034863;28;20034;-73
2024/03/09 00:39:58;;;;;;;42.75;20.88;;;5.80;99.90;;;;;;5034906;28;20026;-74
2024/03/09 00:42:25;;;;;;;45.38;20.30;;;5.80;99.90;;;;;;5034574;28;20036;-74
2024/03/09 00:44:51;;;;;;;35.58;19.23;;;5.80;99.90;;;;;;5034147;28;20022;-74
2024/03/09 00:47:17;;;;;;;41.13;21.25;;;5.80;99.90;;;;;;5034123;28;20085;-74
2024/03/09 00:49:43;;;;;;;42.83;21.50;;;5.80;99.90;;;;;;5037230;28;20029;-73
2024/03/09 00:52:10;;;;;;;32.33;15.10;;;5.80;99.90;;;;;;5035805;28;20052;-74
2024/03/09 00:54:37;;;;;;;42.17;20.45;;;5.80;99.90;;;;;;5028921;28;20037;-74
2024/03/09 00:57:03;;;;;;;47.28;22.90;;;5.80;99.90;;;;;;5031615;28;20030;-74
2024/03/09 00:59:30;;;;;;;46.10;22.38;;;5.80;99.90;;;;;;5026820;28;20022;-75
2024/03/09 01:02:00;;;;;;;48.75;22.35;;;5.90;99.90;;;;;;5027930;28;20050;-74
2024/03/09 01:04:25;;;;;;;42.85;20.70;;;5.90;99.90;;;;;;5028892;28;20075;-74
2024/03/09 01:06:54;;;;;;;46.88;22.85;;;5.90;99.90;;;;;;5027402;28;20061;-75
2024/03/09 01:09:20;;;;;;;44.65;21.40;;;5.90;99.90;;;;;;5027230;28;20018;-75
2024/03/09 01:11:48;;;;;;;51.05;23.05;;;5.90;99.90;;;;;;5029304;28;20092;-74
2024/03/09 01:14:14;;;;;;;48.63;24.05;;;5.90;99.90;;;;;;5027214;28;20026;-74
2024/03/09 01:16:40;;;;;;;48.38;23.40;;;5.90;99.90;;;;;;5011341;28;20036;-74
2024/03/09 01:19:06;;;;;;;48.60;24.05;;;5.90;99.90;;;;;;5027396;28;20295;-75
2024/03/09 01:21:33;;;;;;;47.47;22.85;;;6.00;99.90;;;;;;5027893;28;20347;-75
2024/03/09 01:24:02;;;;;;;43.63;22.17;;;6.00;99.90;;;;;;5027132;28;20079;-74
2024/03/09 01:26:27;;;;;;;43.10;21.58;;;6.00;99.90;;;;;;5027879;28;20026;-74
2024/03/09 01:28:54;;;;;;;56.38;26.13;;;6.00;99.90;;;;;;5030628;28;20032;-74
2024/03/09 01:31:27;;;;;;;53.25;24.90;;;6.00;99.90;;;;;;5030920;28;20273;-74
2024/03/09 01:33:55;;;;;;;52.72;26.02;;;6.00;99.90;;;;;;5012854;28;20034;-74
2024/03/09 01:36:23;;;;;;;34.28;15.68;;;6.00;99.90;;;;;;5028902;28;20030;-74
2024/03/09 01:38:49;;;;;;;49.70;23.05;;;6.00;99.90;;;;;;5029340;28;20034;-74
2024/03/09 01:41:15;;;;;;;34.55;16.88;;;6.00;99.90;;;;;;5028286;28;20037;-74
2024/03/09 01:43:41;;;;;;;49.75;23.90;;;6.00;99.90;;;;;;5028714;28;20022;-74
2024/03/09 01:46:09;;;;;;;44.25;21.65;;;6.10;99.90;;;;;;5026852;28;20050;-74
2024/03/09 01:48:36;;;;;;;62.72;29.45;;;6.10;99.90;;;;;;5010197;28;20037;-74
2024/03/09 01:51:01;;;;;;;54.20;25.35;;;6.10;99.90;;;;;;5026717;28;20025;-74
2024/03/09 01:53:28;;;;;;;54.38;26.13;;;6.10;99.90;;;;;;5010357;28;20061;-75
2024/03/09 01:55:58;;;;;;;56.88;26.63;;;6.10;99.90;;;;;;5025960;28;20018;-74
2024/03/09 01:58:24;;;;;;;47.28;22.98;;;6.20;99.90;;;;;;5009975;28;20091;-74
2024/03/09 02:00:56;;;;;;;54.97;24.88;;;6.20;99.90;;;;;;5026212;28;20235;-74
2024/03/09 02:03:25;;;;;;;54.67;26.50;;;6.20;99.90;;;;;;5009878;28;20018;-74
2024/03/09 02:05:51;;;;;;;57.00;27.10;;;6.30;99.90;;;;;;5026240;28;20028;-74
2024/03/09 02:08:17;;;;;;;54.08;27.02;;;6.30;99.90;;;;;;5026802;28;20026;-74
2024/03/09 02:10:43;;;;;;;59.90;29.48;;;6.30;99.90;;;;;;5026583;28;20049;-74
2024/03/09 02:13:10;;;;;;;55.90;27.63;;;6.30;99.90;;;;;;5025868;28;20038;-75
2024/03/09 02:15:36;;;;;;;62.50;31.75;;;6.30;99.90;;;;;;5026111;28;20187;-75
2024/03/09 02:18:02;;;;;;;61.55;28.90;;;6.40;99.90;;;;;;5026114;28;20069;-74
2024/03/09 02:20:30;;;;;;;63.58;30.42;;;6.40;99.90;;;;;;5026073;28;20203;-75
2024/03/09 02:22:57;;;;;;;60.28;29.35;;;6.40;99.90;;;;;;5025952;28;20022;-75
2024/03/09 02:25:24;;;;;;;61.08;29.77;;;6.40;99.90;;;;;;5025845;28;20017;-75
2024/03/09 02:27:52;;;;;;;56.75;27.63;;;6.40;99.90;;;;;;5026485;28;20026;-75
2024/03/09 02:30:19;;;;;;;66.00;32.17;;;6.40;99.90;;;;;;5026390;28;20033;-75
2024/03/09 02:32:45;;;;;;;69.03;30.77;;;6.40;99.90;;;;;;5026116;28;20033;-76
2024/03/09 02:35:11;;;;;;;60.00;30.08;;;6.40;99.90;;;;;;5026687;28;20026;-75
2024/03/09 02:37:37;;;;;;;54.33;25.27;;;6.40;99.90;;;;;;5025895;28;20090;-75
2024/03/09 02:40:04;;;;;;;48.35;24.40;;;6.40;99.90;;;;;;5025737;28;20080;-75
2024/03/09 02:42:32;;;;;;;64.03;30.42;;;6.40;99.90;;;;;;5026280;28;20057;-75
2024/03/09 02:44:57;;;;;;;56.83;29.30;;;6.40;99.90;;;;;;5026085;28;20018;-75
2024/03/09 02:47:23;;;;;;;58.08;27.52;;;6.40;99.90;;;;;;5009264;28;20026;-75
2024/03/09 02:49:49;;;;;;;48.95;23.55;;;6.40;99.90;;;;;;5025593;28;20182;-75
2024/03/09 02:52:15;;;;;;;62.63;30.65;;;6.40;99.90;;;;;;5025455;28;20125;-75
2024/03/09 02:54:42;;;;;;;56.15;27.65;;;6.50;99.90;;;;;;5025285;28;20303;-75
2024/03/09 02:57:08;;;;;;;62.42;30.67;;;6.50;99.90;;;;;;5024851;28;20037;-74
2024/03/09 02:59:35;;;;;;;62.17;28.25;;;6.50;99.90;;;;;;5025058;28;20303;-73
2024/03/09 03:02:04;;;;;;;58.15;28.88;;;6.50;99.90;;;;;;5025338;28;20022;-74
2024/03/09 03:04:30;;;;;;;65.25;30.02;;;6.50;99.90;;;;;;5026199;28;20046;-74
2024/03/09 03:06:57;;;;;;;60.47;29.23;;;6.50;99.90;;;;;;5025937;28;20121;-74
2024/03/09 03:09:22;;;;;;;61.17;30.13;;;6.50;99.90;;;;;;5008903;28;20040;-74
2024/03/09 03:11:49;;;;;;;61.67;29.63;;;6.50;99.90;;;;;;5025459;28;20053;-74
2024/03/09 03:14:15;;;;;;;55.95;26.05;;;6.50;99.90;;;;;;5025294;28;20026;-74
2024/03/09 03:16:41;;;;;;;62.58;29.95;;;6.50;99.90;;;;;;5026190;28;20029;-74
2024/03/09 03:19:07;;;;;;;62.30;30.83;;;6.50;99.90;;;;;;5025136;28;20292;-74
2024/03/09 03:21:36;;;;;;;63.30;31.10;;;6.50;99.90;;;;;;5008466;28;20060;-74
2024/03/09 03:24:02;;;;;;;59.63;26.70;;;6.50;99.90;;;;;;5024489;28;20093;-74
2024/03/09 03:26:30;;;;;;;59.67;29.70;;;6.60;99.90;;;;;;5024819;28;20057;-74
2024/03/09 03:28:56;;;;;;;66.80;30.48;;;6.60;99.90;;;;;;5024859;28;20018;-74
2024/03/09 03:31:21;;;;;;;68.57;32.25;;;6.60;99.90;;;;;;5025177;28;20026;-74
2024/03/09 03:33:49;;;;;;;63.80;30.20;;;6.50;99.90;;;;;;5025863;28;20048;-74
2024/03/09 03:36:18;;;;;;;54.47;26.50;;;6.50;99.90;;;;;;5013845;28;20033;-74
2024/03/09 03:38:46;;;;;;;63.35;30.48;;;6.60;99.90;;;;;;5026610;28;20025;-73
2024/03/09 03:41:11;;;;;;;66.63;30.45;;;6.60;99.90;;;;;;5024853;28;20228;-74
2024/03/09 03:43:38;;;;;;;43.33;20.63;;;6.60;99.90;;;;;;5026004;28;20037;-74
2024/03/09 03:46:05;;;;;;;65.93;30.00;;;6.60;99.90;;;;;;5024458;28;20263;-74
2024/03/09 03:48:30;;;;;;;54.33;27.30;;;6.60;99.90;;;;;;5024512;28;20235;-74
2024/03/09 03:50:56;;;;;;;59.90;28.77;;;6.60;99.90;;;;;;5024656;28;20085;-74
2024/03/09 03:53:23;;;;;;;67.72;30.73;;;6.60;99.90;;;;;;5025655;28;20053;-74
2024/03/09 03:55:48;;;;;;;59.80;29.50;;;6.60;99.90;;;;;;5024681;28;20237;-74
2024/03/09 03:58:17;;;;;;;57.25;28.50;;;6.60;99.90;;;;;;5025604;28;20030;-73
2024/03/09 04:00:44;;;;;;;63.13;29.40;;;6.60;99.90;;;;;;5024411;28;20240;-74
2024/03/09 04:03:11;;;;;;;69.03;30.33;;;6.60;99.90;;;;;;5024579;28;20097;-74
2024/03/09 04:05:38;;;;;;;62.42;28.27;;;6.60;99.90;;;;;;5008182;28;20030;-74
2024/03/09 04:08:06;;;;;;;66.70;31.30;;;6.60;99.90;;;;;;5024630;28;20018;-74
2024/03/09 04:10:32;;;;;;;59.58;27.55;;;6.60;99.90;;;;;;5025116;28;20026;-74
2024/03/09 04:12:59;;;;;;;63.42;28.27;;;6.60;99.90;;;;;;5024293;28;20032;-74
2024/03/09 04:15:26;;;;;;;64.18;29.52;;;6.60;99.90;;;;;;5024552;28;20022;-74
2024/03/09 04:17:52;;;;;;;65.82;30.85;;;6.60;99.90;;;;;;5025417;28;20034;-74
2024/03/09 04:20:18;;;;;;;56.60;28.45;;;6.60;99.90;;;;;;5024486;28;20338;-74
2024/03/09 04:22:50;;;;;;;54.97;25.02;;;6.60;99.90;;;;;;5025295;28;20017;-74
2024/03/09 04:25:16;;;;;;;49.72;23.13;;;6.60;99.90;;;;;;5024461;28;20032;-74
2024/03/09 04:27:42;;;;;;;64.28;28.98;;;6.60;99.90;;;;;;5007983;28;20021;-74
2024/03/09 04:30:11;;;;;;;62.65;29.40;;;6.60;99.90;;;;;;5024239;28;20041;-74
2024/03/09 04:32:38;;;;;;;62.95;28.20;;;6.60;99.90;;;;;;5024610;28;20089;-74
2024/03/09 04:35:07;;;;;;;58.35;26.75;;;6.60;99.90;;;;;;5026223;28;20187;-74
2024/03/09 04:37:34;;;;;;;56.20;25.45;;;6.60;99.90;;;;;;5027826;28;20026;-74
2024/03/09 04:40:00;;;;;;;61.95;29.92;;;6.50;99.90;;;;;;5027909;28;20026;-74
2024/03/09 04:42:26;;;;;;;51.85;25.25;;;6.50;99.90;;;;;;5028436;28;20030;-75
2024/03/09 04:44:52;;;;;;;54.30;26.15;;;6.60;99.90;;;;;;5027590;28;20017;-74
2024/03/09 04:47:22;;;;;;;58.55;26.20;;;6.50;99.90;;;;;;5011323;28;20099;-74
2024/03/09 04:49:48;;;;;;;52.47;24.50;;;6.60;99.90;;;;;;5028725;28;20037;-74
2024/03/09 04:52:14;;;;;;;51.00;24.85;;;6.50;99.90;;;;;;5028525;28;20030;-75
2024/03/09 04:54:43;;;;;;;44.45;21.17;;;6.50;99.90;;;;;;5010999;28;20056;-75
2024/03/09 04:57:24;;;;;;;50.22;25.33;;;6.50;99.90;;;;;;5010947;28;20144;-75
2024/03/09 04:59:50;;;;;;;55.00;23.35;;;6.50;99.90;;;;;;5011048;28;20038;-74
2024/03/09 05:02:16;;;;;;;37.30;19.17;;;6.50;99.90;;;;;;5027436;28;20021;-74
2024/03/09 05:04:42;;;;;;;54.60;23.85;;;6.50;99.90;;;;;;5027494;28;20159;-74
2024/03/09 05:07:09;;;;;;;53.80;24.08;;;6.50;99.90;;;;;;5028054;28;20030;-75
2024/03/09 05:09:37;;;;;;;60.25;26.58;;;6.50;99.90;;;;;;5027914;28;20022;-74
2024/03/09 05:12:03;;;;;;;57.08;26.55;;;6.50;99.90;;;;;;5027313;28;20030;-74
2024/03/09 05:14:30;;;;;;;52.10;24.33;;;6.50;99.90;;;;;;5028060;28;20026;-75
2024/03/09 05:16:56;;;;;;;46.53;21.40;;;6.50;99.90;;;;;;5027612;28;20088;-75
2024/03/09 05:19:22;;;;;;;51.70;24.10;;;6.50;99.90;;;;;;5027161;28;20179;-74
2024/03/09 05:21:51;;;;;;;50.38;23.13;;;6.50;99.90;;;;;;5028099;28;20026;-74
2024/03/09 05:24:17;;;;;;;55.13;25.75;;;6.50;99.90;;;;;;5026937;28;20026;-74
2024/03/09 05:26:42;;;;;;;54.92;24.70;;;6.50;99.90;;;;;;5027944;28;20202;-74
2024/03/09 05:29:11;;;;;;;42.13;20.17;;;6.50;99.90;;;;;;5027097;28;20025;-74
2024/03/09 05:31:37;;;;;;;31.25;17.58;;;6.50;99.90;;;;;;5027999;28;20277;-74
2024/03/09 05:34:04;;;;;;;54.88;25.70;;;6.50;99.90;;;;;;5026963;28;20049;-74
2024/03/09 05:36:29;;;;;;;39.17;17.73;;;6.60;99.90;;;;;;5026825;28;20032;-74
2024/03/09 05:38:55;;;;;;;61.00;25.58;;;6.50;99.90;;;;;;5027426;28;20211;-74
2024/03/09 05:41:21;;;;;;;57.63;27.38;;;6.50;99.90;;;;;;5010052;28;20035;-74
2024/03/09 05:43:47;;;;;;;51.38;24.23;;;6.50;99.90;;;;;;5026235;28;20030;-74
2024/03/09 05:46:13;;;;;;;55.80;26.67;;;6.50;99.90;;;;;;5026725;28;20092;-75
2024/03/09 05:48:39;;;;;;;56.03;27.40;;;6.50;99.90;;;;;;5010106;28;20148;-75
2024/03/09 05:51:09;;;;;;;55.70;25.75;;;6.50;99.90;;;;;;5027355;28;20030;-75
2024/03/09 05:53:36;;;;;;;;;;;6.50;99.90;;;;;;5026973;28;20092;-75
2024/03/09 05:56:02;;;;;;;58.50;26.95;;;6.40;99.90;;;;;;5027431;28;20067;-75
2024/03/09 05:58:30;;;;;;;61.63;27.42;;;6.50;99.90;;;;;;5027088;28;20061;-75
2024/03/09 06:00:56;;;;;;;59.45;28.33;;;6.40;99.90;;;;;;5026339;28;20153;-75
2024/03/09 06:03:22;;;;;;;57.65;26.88;;;6.50;99.90;;;;;;5026353;28;20017;-75
2024/03/09 06:05:47;;;;;;;60.13;28.05;;;6.40;99.90;;;;;;5026369;28;20271;-75
2024/03/09 06:08:13;;;;;;;49.35;23.33;;;6.50;99.90;;;;;;5009734;28;20030;-75
2024/03/09 06:10:39;;;;;;;63.13;29.52;;;6.50;99.90;;;;;;5026060;28;20084;-75
2024/03/09 06:13:05;;;;;;;60.13;26.58;;;6.40;99.90;;;;;;5009640;28;20040;-75
2024/03/09 06:15:31;;;;;;;48.78;23.63;;;6.40;99.90;;;;;;5026030;28;20103;-75
2024/03/09 06:17:58;;;;;;;58.65;24.73;;;6.40;99.90;;;;;;5026004;28;20025;-75
2024/03/09 06:20:27;;;;;;;55.05;25.55;;;6.40;99.90;;;;;;5025914;28;20029;-75
2024/03/09 06:22:53;;;;;;;50.92;21.75;;;6.30;99.90;;;;;;5021228;28;20025;-75
2024/03/09 06:25:22;;;;;;;52.35;23.27;;;6.40;99.90;;;;;;5046662;28;20033;-75
2024/03/09 06:27:54;;;;;;;53.25;25.63;;;6.40;99.90;;;;;;5046654;28;20028;-75
2024/03/09 06:30:20;;;;;;;42.45;19.23;;;6.40;99.90;;;;;;5046381;28;20105;-75
2024/03/09 06:32:49;;;;;;;53.42;24.42;;;6.40;99.90;;;;;;5046477;28;20029;-75
2024/03/09 06:35:19;;;;;;;40.75;20.73;;;6.40;99.90;;;;;;5013060;28;20036;-75
2024/03/09 06:38:07;;;;;;;41.38;22.27;;;6.50;99.90;;;;;;5013099;28;20045;-75
2024/03/09 06:40:36;;;;;;;53.90;24.73;;;6.50;99.90;;;;;;5032231;28;20033;-75
2024/03/09 06:43:05;;;;;;;56.65;26.58;;;6.50;99.90;;;;;;5028887;28;20052;-75
2024/03/09 06:45:31;;;;;;;54.35;27.17;;;6.50;99.90;;;;;;5046072;28;20318;-75
2024/03/09 06:47:57;;;;;;;50.92;24.80;;;6.50;99.90;;;;;;5046274;28;20026;-75
2024/03/09 06:50:24;;;;;;;57.65;24.30;;;6.50;99.90;;;;;;5028790;28;20033;-75
2024/03/09 06:52:51;;;;;;;52.47;24.90;;;6.50;99.90;;;;;;5028465;28;20029;-75
2024/03/09 06:55:18;;;;;;;56.42;27.08;;;6.50;99.90;;;;;;5012900;28;20052;-75
2024/03/09 06:57:46;;;;;;;57.50;26.13;;;6.50;99.90;;;;;;5027973;28;20199;-74
2024/03/09 07:00:13;;;;;;;56.65;25.10;;;6.50;99.90;;;;;;5028982;28;20030;-75
2024/03/09 07:02:42;;;;;;;56.08;25.05;;;6.50;99.90;;;;;;5028575;28;20338;-76
2024/03/09 07:05:12;;;;;;;45.72;21.02;;;6.50;99.90;;;;;;5028605;28;20026;-75
2024/03/09 07:07:38;;;;;;;56.72;26.13;;;6.50;99.90;;;;;;5012535;28;20053;-75
2024/03/09 07:10:09;;;;;;;56.33;27.58;;;6.50;99.90;;;;;;5012136;28;20040;-75
2024/03/09 07:12:37;;;;;;;50.08;25.40;;;6.50;99.90;;;;;;5028346;28;20030;-75
2024/03/09 07:15:09;;;;;;;58.97;27.80;;;6.50;99.90;;;;;;5028770;28;20282;-74
2024/03/09 07:17:35;;;;;;;51.90;24.55;;;6.50;99.90;;;;;;5012131;28;20189;-75
2024/03/09 07:20:11;;;;;;;58.78;26.42;;;6.50;99.90;;;;;;5028193;28;20394;-75
2024/03/09 07:22:40;;;;;;;45.78;22.35;;;6.50;99.90;;;;;;5013013;28;20053;-75
2024/03/09 07:25:16;;;;;;;54.88;25.23;;;6.60;99.90;;;;;;5011662;28;20040;-76
2024/03/09 07:27:42;;;;;;;44.35;19.75;;;6.60;99.90;;;;;;5028748;28;20032;-76
2024/03/09 07:30:09;;;;;;;59.05;27.27;;;6.50;99.90;;;;;;5045424;28;20218;-75
2024/03/09 07:32:37;;;;;;;58.67;27.60;;;6.60;99.90;;;;;;5028565;28;20029;-76
2024/03/09 07:35:14;;;;;;;48.65;23.55;;;6.60;99.90;;;;;;5045563;28;20033;-76
2024/03/09 07:37:46;;;;;;;60.83;26.55;;;6.60;99.90;;;;;;5044750;28;20041;-75
2024/03/09 07:40:13;;;;;;;57.22;26.50;;;6.60;99.90;;;;;;5027678;28;20030;-75
2024/03/09 07:42:39;;;;;;;63.50;25.92;;;6.60;99.90;;;;;;5028120;28;20025;-75
2024/03/09 07:45:13;;;;;;;59.60;26.40;;;6.60;99.90;;;;;;5027450;28;20044;-75
2024/03/09 07:47:51;;;;;;;46.60;22.70;;;6.60;99.90;;;;;;5028729;28;20040;-75
2024/03/09 07:50:18;;;;;;;56.15;24.80;;;6.50;99.90;;;;;;5044796;28;20030;-75
2024/03/09 07:52:48;;;;;;;51.30;22.95;;;6.60;99.90;;;;;;5027840;28;20093;-73
2024/03/09 07:55:20;;;;;;;53.22;24.20;;;6.60;99.90;;;;;;5029022;28;20095;-75
2024/03/09 07:57:48;;;;;;;57.33;26.40;;;6.60;99.90;;;;;;5028270;28;20034;-74
2024/03/09 08:00:17;;;;;;;54.35;26.67;;;6.70;99.90;;;;;;5045092;28;20278;-75
2024/03/09 08:02:46;;;;;;;57.55;23.90;;;6.60;99.90;;;;;;5028115;28;20033;-75
2024/03/09 08:05:14;;;;;;;62.97;26.70;;;6.60;99.90;;;;;;5044744;28;20156;-74
2024/03/09 08:07:44;;;;;;;54.03;26.90;;;6.70;99.90;;;;;;5043812;28;20022;-75
2024/03/09 08:10:18;;;;;;;58.10;26.45;;;6.70;99.90;;;;;;5013765;28;20345;-75
2024/03/09 08:12:44;;;;;;;52.28;23.33;;;6.70;99.90;;;;;;5049113;28;20029;-75
2024/03/09 08:15:12;;;;;;;54.90;25.05;;;6.80;99.90;;;;;;5049291;28;20297;-75
2024/03/09 08:17:38;;;;;;;54.65;25.83;;;6.70;99.90;;;;;;5049419;28;20108;-75
2024/03/09 08:20:06;;;;;;;59.80;28.02;;;6.80;99.90;;;;;;5057764;28;20029;-75
2024/03/09 08:22:39;;;;;;;61.47;29.05;;;6.80;99.90;;;;;;5048252;28;20028;-74
2024/03/09 08:25:11;;;;;;;44.53;19.05;;;6.80;99.90;;;;;;5031680;28;20029;-74
2024/03/09 08:27:38;;;;;;;59.38;27.67;;;6.80;99.90;;;;;;5048081;28;20293;-74
2024/03/09 08:30:14;;;;;;;56.30;26.15;;;6.80;99.90;;;;;;5031620;28;20025;-74
2024/03/09 08:32:47;;;;;;;58.95;27.05;;;6.80;99.90;;;;;;5031873;28;20033;-74
2024/03/09 08:35:16;;;;;;;60.88;27.70;;;6.80;99.90;;;;;;5015770;28;20175;-74
2024/03/09 08:37:43;;;;;;;58.75;27.42;;;6.80;99.90;;;;;;5031867;28;20152;-74
2024/03/09 08:40:10;;;;;;;42.03;21.23;;;6.80;99.90;;;;;;5014687;28;20033;-74
2024/03/09 08:42:36;;;;;;;57.58;26.90;;;6.80;99.90;;;;;;5014687;28;20024;-76
2024/03/09 08:45:05;;;;;;;63.85;28.13;;;6.90;99.90;;;;;;5014253;28;20172;-75
2024/03/09 08:47:34;;;;;;;56.60;23.83;;;6.90;99.90;;;;;;5031471;28;20025;-76
2024/03/09 08:50:00;;;;;;;60.30;25.93;;;6.90;99.90;;;;;;5031476;28;20085;-76
2024/03/09 08:52:26;;;;;;;62.35;28.05;;;6.90;99.90;;;;;;5030697;28;20252;-76
2024/03/09 08:54:52;;;;;;;59.25;26.77;;;6.90;99.90;;;;;;5014302;28;20036;-76
2024/03/09 08:57:18;;;;;;;51.80;24.02;;;6.90;99.90;;;;;;5030740;28;20021;-76
2024/03/09 08:59:44;;;;;;;44.05;20.00;;;7.00;99.90;;;;;;5030850;28;20037;-74
2024/03/09 09:02:10;;;;;;;54.67;26.15;;;7.00;99.90;;;;;;5013894;28;20271;-75
2024/03/09 09:04:36;;;;;;;52.38;24.83;;;7.00;99.90;;;;;;5014023;28;20120;-74
2024/03/09 09:07:02;;;;;;;52.13;24.58;;;7.00;99.90;;;;;;5047731;28;20029;-75
2024/03/09 09:09:28;;;;;;;52.20;23.25;;;7.00;99.90;;;;;;5030610;28;20286;-75
2024/03/09 09:11:54;;;;;;;60.58;27.25;;;7.00;99.90;;;;;;5013604;28;20039;-74
2024/03/09 09:14:20;;;;;;;47.83;23.50;;;7.00;99.90;;;;;;5030364;28;20031;-74
2024/03/09 09:16:48;;;;;;;58.72;26.50;;;7.00;99.90;;;;;;5030207;28;20041;-74
2024/03/09 09:19:14;;;;;;;43.10;18.80;;;7.00;99.90;;;;;;5047728;28;20174;-74
2024/03/09 09:21:40;;;;;;;62.47;25.98;;;7.00;99.90;;;;;;5046894;28;20029;-74
2024/03/09 09:24:06;;;;;;;60.33;26.33;;;7.00;99.90;;;;;;5047600;28;20127;-74
2024/03/09 09:26:33;;;;;;;62.22;28.13;;;7.00;99.90;;;;;;5030210;28;20021;-74
2024/03/09 09:28:59;;;;;;;55.70;25.23;;;7.00;99.90;;;;;;5029554;28;20032;-74
2024/03/09 09:31:25;;;;;;;54.17;24.38;;;7.00;99.90;;;;;;5030057;28;20021;-74
2024/03/09 09:33:51;;;;;;;53.03;24.17;;;6.90;99.90;;;;;;5029944;28;20282;-74
2024/03/09 09:36:18;;;;;;;62.72;28.02;;;7.00;99.90;;;;;;5013233;28;20033;-75
2024/03/09 09:38:45;;;;;;;61.42;28.65;;;6.90;99.90;;;;;;5029649;28;20088;-75
2024/03/09 09:41:11;;;;;;;61.22;26.02;;;7.00;99.90;;;;;;5029315;28;20075;-75
2024/03/09 09:43:37;;;;;;;63.00;26.77;;;7.00;99.90;;;;;;5029221;28;20038;-75
2024/03/09 09:46:04;;;;;;;38.38;19.02;;;7.00;99.90;;;;;;5029478;28;20069;-75
2024/03/09 09:48:32;;;;;;;54.55;26.13;;;7.10;99.90;;;;;;5013137;28;20363;-74
2024/03/09 09:50:58;;;;;;;49.60;21.83;;;7.10;99.90;;;;;;5029654;28;20176;-75
2024/03/09 09:53:23;;;;;;;37.60;18.33;;;7.10;99.90;;;;;;5029726;28;20048;-75
2024/03/09 09:55:49;;;;;;;41.50;20.90;;;7.10;99.90;;;;;;5012952;28;20247;-75
2024/03/09 09:58:15;;;;;;;44.15;22.08;;;7.20;99.90;;;;;;5029270;28;20287;-74
2024/03/09 10:00:41;;;;;;;42.20;19.95;;;7.20;99.90;;;;;;5012577;28;20037;-75
2024/03/09 10:03:07;;;;;;;50.35;24.75;;;7.20;99.90;;;;;;5029221;28;20022;-74
2024/03/09 10:05:33;;;;;;;54.20;26.23;;;7.20;99.90;;;;;;5046530;28;20287;-74
2024/03/09 10:08:03;;;;;;;61.78;26.33;;;7.20;99.90;;;;;;5046594;28;20028;-75
2024/03/09 10:10:30;;;;;;;58.95;27.35;;;7.30;99.90;;;;;;5028843;28;20029;-75
2024/03/09 10:13:15;;;;;;;50.50;24.27;;;7.30;99.90;;;;;;5012696;28;20033;-74
2024/03/09 10:15:43;;;;;;;46.83;19.60;;;7.30;99.90;;;;;;5029199;28;20033;-74
2024/03/09 10:18:09;;;;;;;46.75;22.65;;;7.30;99.90;;;;;;5012735;28;20025;-74
2024/03/09 10:20:36;;;;;;;36.15;20.88;;;7.30;99.90;;;;;;5012345;28;20057;-74
2024/03/09 10:23:04;;;;;;;67.95;29.65;;;7.30;99.90;;;;;;5046164;28;20026;-74
2024/03/09 10:25:35;;;;;;;57.13;24.80;;;7.30;99.90;;;;;;5046045;28;20024;-74
2024/03/09 10:28:01;;;;;;;56.33;23.13;;;7.30;99.90;;;;;;5029388;28;20084;-74
2024/03/09 10:30:27;;;;;;;48.60;23.25;;;7.30;99.90;;;;;;5028710;28;20033;-75
2024/03/09 10:32:56;;;;;;;59.97;26.08;;;7.30;99.90;;;;;;5028508;28;20251;-76
2024/03/09 10:35:23;;;;;;;55.72;25.90;;;7.30;99.90;;;;;;5028210;28;20056;-74
2024/03/09 10:37:56;;;;;;;56.95;24.80;;;7.30;99.90;;;;;;5028612;28;20031;-74
2024/03/09 10:40:26;;;;;;;57.88;26.40;;;7.30;99.90;;;;;;5012907;28;20246;-74
2024/03/09 10:42:53;;;;;;;65.57;31.42;;;7.30;99.90;;;;;;5011659;28;20025;-75
2024/03/09 10:45:20;;;;;;;63.55;29.73;;;7.30;99.90;;;;;;5044604;28;20141;-74
2024/03/09 10:47:54;;;;;;;63.92;30.63;;;7.30;99.90;;;;;;5045015;28;20017;-74
2024/03/09 10:50:24;;;;;;;60.90;26.98;;;7.30;99.90;;;;;;5045540;28;20067;-75
2024/03/09 10:53:08;;;;;;;;;;;7.30;99.90;;;;;;5028906;28;20170;-75
2024/03/09 10:55:41;;;;;;;53.45;25.27;;;7.30;99.90;;;;;;5045793;28;20167;-75
2024/03/09 10:58:06;;;;;;;60.78;28.30;;;7.20;99.90;;;;;;5028576;28;20267;-74
2024/03/09 11:00:33;;;;;;;72.70;32.10;;;7.20;99.90;;;;;;5028046;28;20091;-75
2024/03/09 11:03:08;;;;;;;62.47;29.83;;;7.20;99.90;;;;;;5028127;28;20072;-75
2024/03/09 11:05:37;;;;;;;74.28;32.05;;;7.30;99.90;;;;;;5029019;28;20080;-75
2024/03/09 11:08:04;;;;;;;62.95;31.38;;;7.30;99.90;;;;;;5027983;28;20072;-75
2024/03/09 11:10:29;;;;;;;69.10;30.90;;;7.40;99.90;;;;;;5027981;28;20052;-75
2024/03/09 11:12:55;;;;;;;66.85;29.42;;;7.50;99.90;;;;;;5027850;28;20025;-75
2024/03/09 11:15:25;;;;;;;56.38;27.73;;;7.60;99.90;;;;;;5027685;28;20191;-75
2024/03/09 11:17:53;;;;;;;69.18;29.95;;;7.70;99.90;;;;;;5045287;28;20029;-76
2024/03/09 11:20:22;;;;;;;64.03;31.38;;;7.70;99.90;;;;;;5045088;28;20278;-75
2024/03/09 11:22:48;;;;;;;43.75;19.48;;;7.70;99.90;;;;;;5011868;28;20051;-76
2024/03/09 11:25:14;;;;;;;66.00;27.92;;;7.60;99.90;;;;;;5011367;28;20048;-75
2024/03/09 11:27:40;;;;;;;58.58;28.13;;;7.60;99.90;;;;;;5045059;28;20211;-75
2024/03/09 11:30:07;;;;;;;56.80;23.60;;;7.70;99.90;;;;;;5045227;28;20033;-75
2024/03/09 11:32:35;;;;;;;57.45;26.77;;;7.70;99.90;;;;;;5027445;28;20017;-75
2024/03/09 11:35:35;;;;;;;47.22;22.92;;;7.80;99.90;;;;;;5045060;28;20260;-75
2024/03/09 11:38:11;;;;;;;59.13;25.65;;;7.80;99.90;;;;;;5027386;28;20326;-76
2024/03/09 11:40:36;;;;;;;63.83;28.98;;;7.80;99.90;;;;;;5045010;28;20238;-75
2024/03/09 11:43:09;;;;;;;63.05;28.73;;;7.80;99.90;;;;;;5027648;28;20029;-76
2024/03/09 11:45:35;;;;;;;53.58;25.35;;;7.80;99.90;;;;;;5010944;28;20049;-75
2024/03/09 11:48:03;;;;;;;53.00;23.88;;;7.80;99.90;;;;;;5027291;28;20033;-76
2024/03/09 11:50:28;;;;;;;50.38;23.75;;;7.80;99.90;;;;;;5011119;28;20033;-77
2024/03/09 11:52:59;;;;;;;57.25;25.58;;;7.80;99.90;;;;;;5010892;28;20314;-75
2024/03/09 11:55:27;;;;;;;62.80;27.67;;;7.80;99.90;;;;;;5044875;28;20033;-76
2024/03/09 11:57:53;;;;;;;68.25;30.80;;;7.80;99.90;;;;;;5045196;28;20093;-76
2024/03/09 12:00:19;;;;;;;58.97;25.33;;;7.80;99.90;;;;;;5027181;28;20266;-76
2024/03/09 12:02:45;;;;;;;70.07;30.25;;;7.90;99.90;;;;;;5027245;28;20029;-75
2024/03/09 12:05:16;;;;;;;63.20;29.23;;;7.90;99.90;;;;;;5010963;28;20202;-76
2024/03/09 12:07:47;;;;;;;77.53;33.47;;;7.90;99.90;;;;;;5045088;28;20028;-76
2024/03/09 12:10:13;;;;;;;70.13;33.13;;;8.00;99.90;;;;;;5011794;28;20040;-75
2024/03/09 12:12:45;;;;;;;66.07;30.00;;;8.00;99.90;;;;;;5028005;28;20021;-75
2024/03/09 12:15:11;;;;;;;44.75;21.08;;;8.10;99.90;;;;;;5027525;28;20283;-76
2024/03/09 12:17:41;;;;;;;70.05;30.30;;;8.10;99.90;;;;;;5027488;28;20044;-75
2024/03/09 12:20:08;;;;;;;63.63;28.17;;;8.00;99.90;;;;;;5044636;28;20301;-74
2024/03/09 12:22:35;;;;;;;70.53;31.65;;;8.00;99.90;;;;;;5044357;28;20029;-74
2024/03/09 12:25:03;;;;;;;70.18;31.15;;;8.00;99.90;;;;;;5010881;28;20029;-75
2024/03/09 12:27:30;;;;;;;73.13;32.42;;;8.00;99.90;;;;;;5044618;28;20080;-75
2024/03/09 12:29:56;;;;;;;79.75;31.02;;;8.10;99.90;;;;;;5010738;28;20029;-75
2024/03/09 12:32:26;;;;;;;57.55;23.42;;;8.20;99.90;;;;;;5010595;28;20083;-76
2024/03/09 12:34:54;;;;;;;69.63;33.33;;;8.20;99.90;;;;;;5010808;28;20024;-75
2024/03/09 12:37:25;;;;;;;71.28;32.90;;;8.30;99.90;;;;;;5027140;28;20175;-76
2024/03/09 12:39:51;;;;;;;59.72;25.50;;;8.30;99.90;;;;;;5026472;28;20053;-75